createdAt,value
2022-10-22T00:00:09.490Z,1.60
2022-10-22T00:02:36.403Z,1.63
2022-10-22T00:05:03.450Z,1.40
2022-10-22T00:07:30.315Z,1.10
2022-10-22T00:09:57.193Z,1.40
2022-10-22T00:12:24.054Z,1.40
2022-10-22T00:14:51.026Z,1.50
2022-10-22T00:17:18.042Z,1.55
2022-10-22T00:19:44.954Z,2.45
2022-10-22T00:22:11.946Z,1.30
2022-10-22T00:24:39.239Z,1.10
2022-10-22T00:27:06.748Z,1.45
2022-10-22T00:29:33.717Z,1.05
2022-10-22T00:32:00.599Z,1.48
2022-10-22T00:34:27.561Z,1.10
2022-10-22T00:36:54.446Z,1.02
2022-10-22T00:39:22.486Z,0.98
2022-10-22T00:41:50.895Z,1.40
2022-10-22T00:44:55.493Z,1.00
2022-10-22T00:47:22.983Z,1.00
2022-10-22T00:49:49.899Z,1.00
2022-10-22T00:52:16.827Z,1.10
2022-10-22T00:54:43.673Z,1.05
2022-10-22T00:57:10.533Z,1.40
2022-10-22T00:59:37.785Z,1.27
2022-10-22T01:02:04.851Z,1.10
2022-10-22T01:04:31.830Z,1.75
2022-10-22T01:06:58.669Z,1.50
2022-10-22T01:09:31.247Z,1.25
2022-10-22T01:12:10.415Z,1.10
2022-10-22T01:15:05.483Z,1.77
2022-10-22T01:17:59.943Z,1.80
2022-10-22T01:20:45.699Z,0.95
2022-10-22T01:23:24.454Z,1.30
2022-10-22T01:25:58.258Z,1.10
2022-10-22T01:28:52.263Z,1.55
2022-10-22T01:31:19.301Z,1.60
2022-10-22T01:33:46.155Z,1.40
2022-10-22T01:36:13.314Z,1.30
2022-10-22T01:38:40.193Z,1.20
2022-10-22T01:41:07.375Z,1.83
2022-10-22T01:43:34.235Z,1.25
2022-10-22T01:46:02.528Z,1.27
2022-10-22T01:48:54.792Z,1.42
2022-10-22T01:51:31.171Z,1.73
2022-10-22T01:54:08.683Z,1.08
2022-10-22T01:56:55.262Z,1.48
2022-10-22T01:59:37.001Z,1.13
2022-10-22T02:02:19.867Z,1.33
2022-10-22T02:04:59.062Z,1.27
2022-10-22T02:07:28.103Z,1.20
2022-10-22T02:09:54.919Z,1.93
2022-10-22T02:12:21.814Z,0.80
2022-10-22T02:14:48.700Z,1.30
2022-10-22T02:17:18.266Z,1.20
2022-10-22T02:19:53.905Z,1.30
2022-10-22T02:22:20.857Z,1.20
2022-10-22T02:24:47.777Z,1.10
2022-10-22T02:27:26.033Z,1.25
2022-10-22T02:30:06.459Z,1.50
2022-10-22T02:32:36.768Z,1.27
2022-10-22T02:35:03.823Z,1.85
2022-10-22T02:37:30.669Z,1.90
2022-10-22T02:39:57.642Z,1.45
2022-10-22T02:42:25.542Z,1.15
2022-10-22T02:44:52.823Z,1.40
2022-10-22T02:47:19.721Z,2.00
2022-10-22T02:49:46.703Z,0.93
2022-10-22T02:52:13.554Z,1.75
2022-10-22T02:54:40.410Z,1.20
2022-10-22T02:57:07.446Z,1.23
2022-10-22T02:59:34.402Z,1.52
2022-10-22T03:02:01.281Z,1.38
2022-10-22T03:04:28.192Z,1.30
2022-10-22T03:06:55.077Z,0.80
2022-10-22T03:09:24.135Z,1.30
2022-10-22T03:11:51.949Z,0.95
2022-10-22T03:14:18.828Z,1.13
2022-10-22T03:16:45.733Z,0.95
2022-10-22T03:19:12.571Z,1.00
2022-10-22T03:21:42.406Z,0.80
2022-10-22T03:26:39.757Z,1.00
2022-10-22T03:29:06.566Z,1.10
2022-10-22T03:31:33.399Z,1.10
2022-10-22T03:34:00.283Z,0.98
2022-10-22T03:36:27.171Z,0.93
2022-10-22T03:38:54.006Z,1.60
2022-10-22T03:41:20.884Z,1.17
2022-10-22T03:43:51.538Z,1.13
2022-10-22T03:46:18.601Z,1.10
2022-10-22T03:48:45.433Z,0.82
2022-10-22T03:51:12.317Z,1.00
2022-10-22T03:53:39.301Z,0.70
2022-10-22T03:56:10.451Z,0.80
2022-10-22T03:58:38.226Z,0.65
2022-10-22T04:01:09.507Z,0.90
2022-10-22T04:03:36.471Z,0.98
2022-10-22T04:06:04.328Z,0.80
2022-10-22T04:08:31.255Z,1.40
2022-10-22T04:10:58.194Z,1.20
2022-10-22T04:13:25.164Z,0.80
2022-10-22T04:15:52.179Z,0.80
2022-10-22T04:18:19.782Z,1.05
2022-10-22T04:20:46.692Z,1.00
2022-10-22T04:23:13.693Z,1.17
2022-10-22T04:25:40.760Z,1.00
2022-10-22T04:28:08.362Z,1.27
2022-10-22T04:30:35.899Z,1.73
2022-10-22T04:33:02.902Z,0.90
2022-10-22T04:35:29.942Z,1.13
2022-10-22T04:37:56.863Z,1.25
2022-10-22T04:40:23.724Z,1.30
2022-10-22T04:42:50.666Z,0.90
2022-10-22T04:45:17.579Z,1.10
2022-10-22T04:47:44.479Z,1.00
2022-10-22T04:50:11.321Z,1.05
2022-10-22T04:52:38.238Z,1.15
2022-10-22T04:55:05.610Z,1.20
2022-10-22T04:57:32.545Z,1.20
2022-10-22T04:59:59.427Z,1.13
2022-10-22T05:02:26.554Z,1.05
2022-10-22T05:04:53.430Z,0.80
2022-10-22T05:07:20.351Z,0.93
2022-10-22T05:09:47.218Z,1.38
2022-10-22T05:12:14.115Z,1.33
2022-10-22T05:14:44.038Z,1.40
2022-10-22T05:17:11.867Z,0.98
2022-10-22T05:19:38.733Z,0.80
2022-10-22T05:22:06.049Z,0.88
2022-10-22T05:24:33.600Z,1.15
2022-10-22T05:27:00.566Z,1.10
2022-10-22T05:29:27.501Z,1.10
2022-10-22T05:31:54.468Z,0.90
2022-10-22T05:34:21.381Z,1.00
2022-10-22T05:36:48.279Z,1.33
2022-10-22T05:39:15.132Z,1.83
2022-10-22T05:41:42.078Z,1.17
2022-10-22T05:44:11.437Z,1.30
2022-10-22T05:46:38.473Z,1.52
2022-10-22T05:49:06.015Z,2.08
2022-10-22T05:51:33.988Z,0.98
2022-10-22T05:54:03.245Z,1.27
2022-10-22T05:56:31.953Z,1.30
2022-10-22T05:58:59.085Z,1.67
2022-10-22T06:01:33.232Z,1.40
2022-10-22T06:04:01.227Z,1.48
2022-10-22T06:06:34.801Z,0.75
2022-10-22T06:09:07.691Z,1.90
2022-10-22T06:11:35.349Z,1.70
2022-10-22T06:14:02.968Z,1.48
2022-10-22T06:16:30.456Z,1.20
2022-10-22T06:18:59.015Z,1.27
2022-10-22T06:21:25.863Z,1.40
2022-10-22T06:23:52.739Z,1.30
2022-10-22T06:26:19.627Z,1.40
2022-10-22T06:28:46.462Z,1.20
2022-10-22T06:31:14.509Z,1.80
2022-10-22T06:33:44.413Z,1.33
2022-10-22T06:38:39.278Z,1.30
2022-10-22T06:41:07.614Z,1.80
2022-10-22T06:43:34.979Z,1.23
2022-10-22T06:46:03.089Z,2.83
2022-10-22T06:48:30.131Z,2.00
2022-10-22T06:51:00.936Z,1.52
2022-10-22T06:53:27.819Z,2.60
2022-10-22T06:55:54.651Z,2.05
2022-10-22T06:58:21.594Z,1.50
2022-10-22T07:00:48.531Z,1.70
2022-10-22T07:03:15.829Z,1.75
2022-10-22T07:05:42.745Z,1.90
2022-10-22T07:08:09.664Z,1.85
2022-10-22T07:10:36.542Z,2.78
2022-10-22T07:13:03.403Z,2.15
2022-10-22T07:15:30.306Z,3.42
2022-10-22T07:17:57.171Z,1.83
2022-10-22T07:20:24.127Z,1.83
2022-10-22T07:22:51.038Z,1.83
2022-10-22T07:25:18.086Z,2.03
2022-10-22T07:27:44.957Z,1.65
2022-10-22T07:30:12.096Z,1.60
2022-10-22T07:32:39.009Z,1.73
2022-10-22T07:35:06.342Z,1.65
2022-10-22T07:37:33.249Z,1.95
2022-10-22T07:40:03.684Z,2.00
2022-10-22T07:42:31.199Z,2.03
2022-10-22T07:44:58.096Z,2.67
2022-10-22T07:47:24.998Z,2.50
2022-10-22T07:49:51.914Z,2.30
2022-10-22T07:52:18.917Z,2.20
2022-10-22T07:54:45.811Z,4.18
2022-10-22T07:57:12.651Z,2.35
2022-10-22T07:59:39.586Z,2.28
2022-10-22T08:02:06.566Z,2.00
2022-10-22T08:04:33.681Z,2.33
2022-10-22T08:07:00.979Z,3.22
2022-10-22T08:09:27.851Z,1.65
2022-10-22T08:11:54.933Z,1.88
2022-10-22T08:14:22.330Z,1.98
2022-10-22T08:16:49.519Z,1.75
2022-10-22T08:19:21.273Z,1.98
2022-10-22T08:21:48.340Z,2.60
2022-10-22T08:24:15.382Z,1.70
2022-10-22T08:26:42.446Z,1.90
2022-10-22T08:29:09.306Z,2.33
2022-10-22T08:31:36.170Z,2.17
2022-10-22T08:34:03.194Z,2.47
2022-10-22T08:36:30.072Z,2.10
2022-10-22T08:38:56.950Z,1.58
2022-10-22T08:41:24.022Z,1.95
2022-10-22T08:44:12.656Z,1.80
2022-10-22T08:46:52.632Z,1.65
2022-10-22T08:49:21.971Z,1.35
2022-10-22T08:51:48.810Z,2.03
2022-10-22T08:54:21.620Z,1.67
2022-10-22T08:57:03.335Z,1.45
2022-10-22T08:59:51.467Z,1.60
2022-10-22T09:02:39.980Z,1.50
2022-10-22T09:05:19.558Z,1.88
2022-10-22T09:07:50.237Z,2.15
2022-10-22T09:10:18.588Z,2.45
2022-10-22T09:12:45.662Z,1.48
2022-10-22T09:15:16.321Z,2.10
2022-10-22T09:17:51.028Z,2.00
2022-10-22T09:20:32.865Z,2.45
2022-10-22T09:23:29.594Z,2.47
2022-10-22T09:25:57.069Z,1.88
2022-10-22T09:28:24.210Z,1.52
2022-10-22T09:30:51.273Z,1.52
2022-10-22T09:33:27.499Z,1.77
2022-10-22T09:35:55.830Z,1.95
2022-10-22T09:38:27.744Z,1.70
2022-10-22T09:40:55.764Z,1.65
2022-10-22T09:43:22.683Z,2.42
2022-10-22T09:45:55.391Z,1.63
2022-10-22T09:48:28.475Z,1.48
2022-10-22T09:51:21.376Z,1.75
2022-10-22T09:54:01.814Z,1.67
2022-10-22T09:56:36.374Z,2.03
2022-10-22T09:59:03.332Z,1.48
2022-10-22T10:01:32.974Z,1.70
2022-10-22T10:06:39.156Z,2.13
2022-10-22T10:09:22.429Z,2.03
2022-10-22T10:11:56.061Z,1.52
2022-10-22T10:14:35.359Z,2.05
2022-10-22T10:17:38.712Z,2.05
2022-10-22T10:20:36.731Z,1.67
2022-10-22T10:23:15.706Z,1.65
2022-10-22T10:25:49.682Z,1.73
2022-10-22T10:28:41.409Z,1.48
2022-10-22T10:31:19.283Z,1.30
2022-10-22T10:34:04.843Z,1.85
2022-10-22T10:36:40.069Z,1.35
2022-10-22T10:39:18.851Z,1.90
2022-10-22T10:41:48.743Z,1.45
2022-10-22T10:44:49.907Z,1.70
2022-10-22T10:47:46.482Z,2.00
2022-10-22T10:50:41.452Z,1.20
2022-10-22T10:53:33.999Z,1.77
2022-10-22T10:56:22.155Z,1.27
2022-10-22T10:59:13.726Z,1.20
2022-10-22T11:02:00.775Z,2.25
2022-10-22T11:04:46.310Z,2.03
2022-10-22T11:07:33.461Z,1.48
2022-10-22T11:10:09.973Z,1.70
2022-10-22T11:12:39.871Z,1.40
2022-10-22T11:15:34.251Z,1.50
2022-10-22T11:18:10.533Z,1.65
2022-10-22T11:20:51.225Z,1.63
2022-10-22T11:23:41.145Z,1.50
2022-10-22T11:26:11.658Z,1.55
2022-10-22T11:28:42.702Z,1.80
2022-10-22T11:31:16.944Z,1.30
2022-10-22T11:34:09.806Z,1.27
2022-10-22T11:36:42.461Z,1.20
2022-10-22T11:39:39.121Z,1.92
2022-10-22T11:42:09.725Z,1.30
2022-10-22T11:45:06.981Z,1.65
2022-10-22T11:47:36.316Z,1.83
2022-10-22T11:50:44.054Z,1.48
2022-10-22T11:53:14.130Z,1.35
2022-10-22T11:55:48.213Z,1.58
2022-10-22T11:58:50.783Z,1.17
2022-10-22T12:01:50.109Z,1.40
2022-10-22T12:04:23.676Z,1.40
2022-10-22T12:06:57.739Z,1.48
2022-10-22T12:09:26.740Z,1.55
2022-10-22T12:11:53.659Z,1.85
2022-10-22T12:14:29.684Z,1.63
2022-10-22T12:17:10.045Z,1.75
2022-10-22T12:19:41.068Z,1.35
2022-10-22T12:22:13.929Z,1.45
2022-10-22T12:24:42.309Z,1.40
2022-10-22T12:27:24.338Z,1.17
2022-10-22T12:29:58.388Z,1.10
2022-10-22T12:32:34.119Z,1.63
2022-10-22T12:35:04.854Z,1.10
2022-10-22T12:37:31.748Z,1.38
2022-10-22T12:39:58.586Z,1.63
2022-10-22T12:42:25.630Z,1.77
2022-10-22T12:44:55.982Z,2.42
2022-10-22T12:47:22.989Z,3.03
2022-10-22T12:49:50.244Z,1.48
2022-10-22T12:52:21.706Z,1.42
2022-10-22T12:54:50.180Z,1.35
2022-10-22T12:57:18.193Z,1.23
2022-10-22T12:59:49.839Z,1.27
2022-10-22T13:02:17.946Z,1.27
2022-10-22T13:05:03.972Z,1.42
2022-10-22T13:07:39.053Z,1.50
2022-10-22T13:10:34.413Z,1.27
2022-10-22T13:13:03.415Z,1.30
2022-10-22T13:15:36.465Z,2.08
2022-10-22T13:18:19.607Z,1.38
2022-10-22T13:20:56.725Z,1.20
2022-10-22T13:23:28.097Z,1.23
2022-10-22T13:26:14.771Z,1.10
2022-10-22T13:28:41.708Z,2.00
2022-10-22T13:31:23.111Z,1.35
2022-10-22T13:33:55.888Z,1.80
2022-10-22T13:36:22.954Z,1.50
2022-10-22T13:38:49.931Z,2.55
2022-10-22T13:41:24.702Z,1.42
2022-10-22T13:43:51.831Z,1.40
2022-10-22T13:46:18.743Z,1.27
2022-10-22T13:48:46.306Z,1.52
2022-10-22T13:51:18.340Z,2.53
2022-10-22T13:53:46.469Z,1.35
2022-10-22T13:56:17.783Z,1.27
2022-10-22T13:58:45.511Z,1.50
2022-10-22T14:01:25.957Z,1.67
2022-10-22T14:03:58.096Z,1.25
2022-10-22T14:06:26.339Z,1.20
2022-10-22T14:08:58.666Z,1.33
2022-10-22T14:11:27.407Z,1.00
2022-10-22T14:13:54.743Z,1.63
2022-10-22T14:16:26.210Z,1.27
2022-10-22T14:18:53.162Z,1.02
2022-10-22T14:21:20.090Z,0.93
2022-10-22T14:23:47.848Z,1.65
2022-10-22T14:26:25.655Z,1.38
2022-10-22T14:34:27.431Z,1.23
2022-10-22T14:36:54.373Z,1.02
2022-10-22T14:39:21.901Z,1.23
2022-10-22T14:41:48.972Z,1.20
2022-10-22T14:44:16.990Z,1.83
2022-10-22T14:46:44.485Z,1.35
2022-10-22T14:49:11.579Z,1.20
2022-10-22T14:51:38.479Z,1.30
2022-10-22T14:54:05.377Z,1.67
2022-10-22T14:56:32.363Z,1.20
2022-10-22T14:58:59.318Z,1.23
2022-10-22T15:01:26.240Z,0.95
2022-10-22T15:03:53.161Z,1.67
2022-10-22T15:06:19.983Z,1.50
2022-10-22T15:08:46.905Z,1.30
2022-10-22T15:11:13.942Z,1.38
2022-10-22T15:13:42.222Z,1.20
2022-10-22T15:16:10.479Z,1.48
2022-10-22T15:18:37.478Z,1.90
2022-10-22T15:21:06.798Z,1.92
2022-10-22T15:23:34.065Z,1.33
2022-10-22T15:26:00.984Z,1.98
2022-10-22T15:28:27.824Z,2.10
2022-10-22T15:30:55.926Z,1.10
2022-10-22T15:33:22.878Z,1.50
2022-10-22T15:35:49.870Z,1.58
2022-10-22T15:38:18.418Z,1.70
2022-10-22T15:40:45.329Z,1.50
2022-10-22T15:43:12.206Z,1.40
2022-10-22T15:45:39.188Z,1.83
2022-10-22T15:48:06.160Z,2.08
2022-10-22T15:50:33.083Z,1.60
2022-10-22T15:52:59.991Z,1.90
2022-10-22T15:55:26.859Z,1.70
2022-10-22T15:57:59.228Z,1.80
2022-10-22T16:00:28.747Z,1.83
2022-10-22T16:02:55.651Z,1.73
2022-10-22T16:05:22.640Z,1.60
2022-10-22T16:07:51.379Z,1.20
2022-10-22T16:10:18.314Z,1.50
2022-10-22T16:12:45.232Z,1.60
2022-10-22T16:15:12.068Z,1.45
2022-10-22T16:17:39.081Z,1.98
2022-10-22T16:20:06.541Z,2.13
2022-10-22T16:22:34.111Z,2.25
2022-10-22T16:25:00.977Z,2.70
2022-10-22T16:27:27.910Z,2.72
2022-10-22T16:29:54.804Z,2.05
2022-10-22T16:32:21.739Z,1.80
2022-10-22T16:34:48.554Z,1.73
2022-10-22T16:37:15.443Z,2.08
2022-10-22T16:39:42.318Z,1.65
2022-10-22T16:42:09.197Z,1.80
2022-10-22T16:44:36.067Z,1.45
2022-10-22T16:47:02.946Z,1.35
2022-10-22T16:49:29.773Z,1.52
2022-10-22T16:51:56.637Z,1.85
2022-10-22T16:54:23.519Z,1.90
2022-10-22T16:56:50.416Z,2.10
2022-10-22T16:59:17.262Z,1.30
2022-10-22T17:01:44.197Z,1.70
2022-10-22T17:04:11.140Z,1.75
2022-10-22T17:06:38.057Z,1.83
2022-10-22T17:09:05.220Z,1.98
2022-10-22T17:11:36.314Z,1.67
2022-10-22T17:14:05.025Z,1.30
2022-10-22T17:16:31.904Z,1.98
2022-10-22T17:18:58.840Z,1.42
2022-10-22T17:21:25.738Z,1.67
2022-10-22T17:23:56.725Z,1.92
2022-10-22T17:26:23.890Z,1.77
2022-10-22T17:28:50.824Z,2.33
2022-10-22T17:31:26.249Z,2.13
2022-10-22T17:33:53.962Z,2.28
2022-10-22T17:36:21.476Z,2.10
2022-10-22T17:38:49.802Z,1.55
2022-10-22T17:41:18.960Z,2.25
2022-10-22T17:46:23.779Z,2.80
2022-10-22T17:49:04.440Z,2.20
2022-10-22T17:51:31.516Z,2.47
2022-10-22T17:53:58.429Z,2.42
2022-10-22T17:56:26.655Z,2.55
2022-10-22T17:58:53.761Z,2.15
2022-10-22T18:01:31.543Z,2.20
2022-10-22T18:04:05.926Z,2.17
2022-10-22T18:06:33.228Z,2.22
2022-10-22T18:09:03.356Z,2.85
2022-10-22T18:11:31.672Z,2.00
2022-10-22T18:14:01.398Z,2.60
2022-10-22T18:16:28.326Z,2.40
2022-10-22T18:18:56.057Z,2.80
2022-10-22T18:21:24.250Z,3.20
2022-10-22T18:23:51.184Z,2.15
2022-10-22T18:26:20.275Z,2.13
2022-10-22T18:28:49.907Z,2.35
2022-10-22T18:31:18.469Z,2.95
2022-10-22T18:33:45.415Z,2.13
2022-10-22T18:36:14.672Z,2.38
2022-10-22T18:38:41.540Z,2.28
2022-10-22T18:41:09.831Z,1.90
2022-10-22T18:43:36.842Z,2.03
2022-10-22T18:46:06.176Z,1.90
2022-10-22T18:48:33.086Z,2.22
2022-10-22T18:51:01.612Z,2.80
2022-10-22T18:53:28.675Z,1.55
2022-10-22T18:55:55.468Z,2.20
2022-10-22T18:58:22.525Z,2.17
2022-10-22T19:00:49.948Z,2.35
2022-10-22T19:03:17.321Z,1.70
2022-10-22T19:05:54.884Z,2.25
2022-10-22T19:08:24.125Z,2.35
2022-10-22T19:10:50.960Z,2.15
2022-10-22T19:13:21.511Z,2.08
2022-10-22T19:15:48.440Z,3.28
2022-10-22T19:18:15.414Z,2.15
2022-10-22T19:20:44.719Z,2.28
2022-10-22T19:23:11.893Z,2.60
2022-10-22T19:25:38.938Z,2.08
2022-10-22T19:28:05.961Z,2.70
2022-10-22T19:30:33.332Z,2.03
2022-10-22T19:33:00.293Z,2.40
2022-10-22T19:35:27.165Z,2.78
2022-10-22T19:37:54.159Z,2.70
2022-10-22T19:40:25.847Z,3.03
2022-10-22T19:42:55.885Z,2.80
2022-10-22T19:45:25.697Z,2.38
2022-10-22T19:50:19.496Z,2.10
2022-10-22T19:52:46.430Z,3.10
2022-10-22T19:55:14.631Z,2.60
2022-10-22T19:57:41.773Z,2.38
2022-10-22T20:00:09.496Z,2.10
2022-10-22T20:02:36.904Z,3.00
2022-10-22T20:05:04.177Z,2.85
2022-10-22T20:07:33.567Z,2.95
2022-10-22T20:10:00.454Z,3.22
2022-10-22T20:12:27.441Z,2.88
2022-10-22T20:14:54.479Z,3.55
2022-10-22T20:17:21.606Z,2.85
2022-10-22T20:19:48.555Z,2.83
2022-10-22T20:22:17.984Z,2.97
2022-10-22T20:24:45.823Z,2.55
2022-10-22T20:27:13.484Z,2.58
2022-10-22T20:29:40.464Z,2.38
2022-10-22T20:32:08.861Z,2.58
2022-10-22T20:34:35.898Z,2.30
2022-10-22T20:37:02.758Z,2.42
2022-10-22T20:39:29.745Z,2.40
2022-10-22T20:41:56.554Z,3.00
2022-10-22T20:44:23.569Z,2.28
2022-10-22T20:46:51.583Z,2.15
2022-10-22T20:49:18.583Z,2.30
2022-10-22T20:51:45.623Z,2.30
2022-10-22T20:54:12.628Z,2.63
2022-10-22T20:56:40.038Z,2.33
2022-10-22T20:59:08.467Z,2.72
2022-10-22T21:01:46.887Z,2.22
2022-10-22T21:04:13.763Z,2.20
2022-10-22T21:06:43.019Z,2.00
2022-10-22T21:09:14.359Z,2.50
2022-10-22T21:11:42.114Z,2.00
2022-10-22T21:14:10.144Z,2.45
2022-10-22T21:16:40.009Z,2.05
2022-10-22T21:19:06.903Z,2.00
2022-10-22T21:21:33.780Z,2.28
2022-10-22T21:24:00.674Z,2.15
2022-10-22T21:26:27.588Z,2.47
2022-10-22T21:28:54.670Z,2.05
2022-10-22T21:31:26.378Z,2.10
2022-10-22T21:33:53.555Z,2.75
2022-10-22T21:36:22.989Z,2.10
2022-10-22T21:38:51.925Z,2.05
2022-10-22T21:41:19.670Z,2.22
2022-10-22T21:43:46.614Z,2.67
2022-10-22T21:46:18.287Z,2.13
2022-10-22T21:48:45.353Z,2.92
2022-10-22T21:51:14.303Z,3.13
2022-10-22T21:53:41.638Z,3.00
2022-10-22T21:56:08.850Z,3.03
2022-10-22T21:58:36.018Z,3.03
2022-10-22T22:01:03.077Z,3.25
2022-10-22T22:03:30.437Z,2.78
2022-10-22T22:06:01.519Z,2.95
2022-10-22T22:08:28.529Z,3.05
2022-10-22T22:11:09.700Z,3.17
2022-10-22T22:13:36.739Z,2.83
2022-10-22T22:16:05.440Z,3.25
2022-10-22T22:18:32.757Z,3.05
2022-10-22T22:20:59.836Z,3.00
2022-10-22T22:23:26.794Z,2.58
2022-10-22T22:25:57.838Z,2.83
2022-10-22T22:28:24.726Z,2.60
2022-10-22T22:30:51.632Z,2.00
2022-10-22T22:33:18.671Z,2.85
2022-10-22T22:35:45.559Z,2.15
2022-10-22T22:38:13.783Z,2.25
2022-10-22T22:40:41.322Z,2.28
2022-10-22T22:43:09.023Z,2.53
2022-10-22T22:45:35.954Z,2.28
2022-10-22T22:48:03.197Z,2.60
2022-10-22T22:50:30.367Z,2.75
2022-10-22T22:52:57.266Z,2.38
2022-10-22T22:55:24.190Z,2.33
2022-10-22T22:57:51.085Z,2.30
2022-10-22T23:00:18.142Z,2.67
2022-10-22T23:02:45.145Z,2.90
2022-10-22T23:05:12.218Z,3.25
2022-10-22T23:07:39.055Z,2.22
2022-10-22T23:10:06.411Z,2.30
2022-10-22T23:12:33.318Z,2.72
2022-10-22T23:15:02.166Z,2.60
2022-10-22T23:17:29.100Z,2.80
2022-10-22T23:19:56.094Z,2.00
2022-10-22T23:22:22.954Z,2.50
2022-10-22T23:24:49.963Z,2.42
2022-10-22T23:27:16.949Z,2.53
2022-10-22T23:29:43.864Z,2.15
2022-10-22T23:32:16.606Z,1.90
2022-10-22T23:34:43.481Z,2.30
2022-10-22T23:37:11.757Z,2.10
2022-10-22T23:39:38.736Z,2.20
2022-10-22T23:42:05.589Z,2.17
2022-10-22T23:44:32.687Z,2.60
2022-10-22T23:46:59.668Z,2.10
2022-10-22T23:49:26.518Z,2.53
2022-10-22T23:51:53.417Z,2.00
2022-10-22T23:54:20.326Z,1.95
2022-10-22T23:56:47.311Z,2.35
